Tokuyo Maru No.11 — JL6131 — position and weather

sailwx.info

Track history (hours):
 
Tides and Currents Weather Stations Pressure Air Temp Water Temp Dewpoint Dewpoint Depression Visibility Wind Speed Wind Dir Waves Ship Positions

Tokuyo Maru No.11

Last reported at 2018-Jun-15 21:36 UTC. Time now 2018-Jun-20 07:21 UTC.
Position N 34°25' E 134°22'.

Length 65 m; draft 4 m.

Type: Tanker. MMSI: 431500038.

Date/timePositionNaut miles runAvg speedWind from/ knotsBaromVisibWave heightAir tempDewpointWater temp
2018-Jun-15 21:36N 34°25' E 134°22'111.3
2018-Jun-15 21:28N 34°26' E 134°23'611.6
2018-Jun-15 20:59N 34°28' E 134°30'611.6
2018-Jun-15 20:30N 34°30' E 134°36'611.5
2018-Jun-15 20:00N 34°32' E 134°43'511.2
2018-Jun-15 19:30N 34°34' E 134°49'8 9.6
2018-Jun-15 18:38N 34°37' E 134°58'3 8.6
2018-Jun-15 18:19N 34°37' E 135°02'2 7.8
2018-Jun-15 18:00N 34°36' E 135°04'5 9.7
2018-Jun-15 17:30N 34°31' E 135°04'510.6
2018-Jun-15 17:00N 34°26' E 135°03'510.9
2018-Jun-15 16:30N 34°21' E 135°00'510.4
2018-Jun-15 16:00N 34°15' E 134°59'611.2
2018-Jun-15 15:30N 34°10' E 134°60'611.1
2018-Jun-15 15:00N 34°04' E 135°01'611.4
2018-Jun-15 14:30N 33°59' E 135°01'610.9
2018-Jun-15 13:58N 33°53' E 135°02'  
2018-Jun-10 17:05N 33°51' E 135°03'111.4
2018-Jun-10 16:58N 33°52' E 135°02'511.3
2018-Jun-10 16:30N 33°56' E 134°58'611.2
2018-Jun-10 15:59N 34°01' E 134°53'611.0
2018-Jun-10 15:27N 34°05' E 134°48'911.6
2018-Jun-10 14:42N 34°12' E 134°41'212.6
2018-Jun-10 14:30N 34°13' E 134°39'16 1.1
2018-Jun-10 00:21N 34°21' E 134°22'411.5
2018-Jun-10 00:00N 34°19' E 134°27'12 1.4
2018-Jun-09 15:10N 34°14' E 134°40'911.2
2018-Jun-09 14:24N 34°07' E 134°46'411.0
2018-Jun-09 14:00N 34°04' E 134°50'510.9
2018-Jun-09 13:30N 33°60' E 134°54'710.9
2018-Jun-09 12:52N 33°55' E 134°59'249 9.0
2018-Jun-08 09:17N 35°15' E 139°46'310.9
2018-Jun-08 09:00N 35°17' E 139°45'610.9
2018-Jun-08 08:30N 35°23' E 139°42'510.4
2018-Jun-08 08:00N 35°27' E 139°46'4 8.4
2018-Jun-08 07:30N 35°31' E 139°46'1 2.1
2018-Jun-08 06:59N 35°32' E 139°45'0 0.0
2018-Jun-08 06:30N 35°32' E 139°45'0 0.0
2018-Jun-08 05:58N 35°32' E 139°45'0 0.0
2018-Jun-08 05:30N 35°32' E 139°45'0 0.0
2018-Jun-08 05:00N 35°32' E 139°45'0 0.0
2018-Jun-08 04:31N 35°32' E 139°45'0 0.0
2018-Jun-08 04:00N 35°32' E 139°45'0 0.7
2018-Jun-08 03:30N 35°31' E 139°46'3 6.1
2018-Jun-08 03:01N 35°30' E 139°49'1 1.7
2018-Jun-08 02:30N 35°29' E 139°49'0 0.0
2018-Jun-08 02:00N 35°29' E 139°49'0 0.0
2018-Jun-08 01:30N 35°29' E 139°49'0 0.0
2018-Jun-08 01:00N 35°29' E 139°49'0 0.0
2018-Jun-08 00:30N 35°29' E 139°49'0 0.0
2018-Jun-07 23:57N 35°29' E 139°49'0 0.0
2018-Jun-07 23:27N 35°29' E 139°49'0 0.0
2018-Jun-07 22:57N 35°29' E 139°49'0 0.1
2018-Jun-07 22:30N 35°29' E 139°49'510.8
2018-Jun-07 22:00N 35°24' E 139°46'611.5
2018-Jun-07 21:30N 35°18' E 139°44'810.8
2018-Jun-07 20:45N 35°10' E 139°47'24710.5
2018-Jun-06 21:09N 33°50' E 135°03'311.4
2018-Jun-06 20:53N 33°53' E 135°01'411.2
2018-Jun-06 20:30N 33°57' E 135°00'611.3
2018-Jun-06 19:58N 34°03' E 134°59'511.3
2018-Jun-06 19:31N 34°08' E 134°58'611.1
2018-Jun-06 19:00N 34°14' E 134°59'510.1
2018-Jun-06 18:31N 34°19' E 134°59'510.7
2018-Jun-06 18:00N 34°24' E 135°00'510.6
2018-Jun-06 17:31N 34°29' E 135°02'510.6
2018-Jun-06 17:00N 34°34' E 135°03'9 7.1
2018-Jun-06 15:47N 34°34' E 134°53'3 9.4
2018-Jun-06 15:31N 34°33' E 134°50'610.8
2018-Jun-06 14:59N 34°31' E 134°43'511.0
2018-Jun-06 14:30N 34°29' E 134°38'611.5
2018-Jun-06 13:59N 34°27' E 134°31'  
Track history (hours):
 
Tides and Currents Weather Stations Pressure Air Temp Water Temp Dewpoint Dewpoint Depression Visibility Wind Speed Wind Dir Waves Ship Positions

Tokuyo Maru No.11

Last reported at 2018-Jun-15 21:36 UTC. Time now 2018-Jun-20 07:21 UTC.
Position N 34°25' E 134°22'.

Length 65 m; draft 4 m.

Type: Tanker. MMSI: 431500038.

Date/timePositionNaut miles runAvg speedWind from/ knotsBaromVisibWave heightAir tempDewpointWater temp
2018-Jun-15 21:36N 34°25' E 134°22'111.3
2018-Jun-15 21:28N 34°26' E 134°23'611.6
2018-Jun-15 20:59N 34°28' E 134°30'611.6
2018-Jun-15 20:30N 34°30' E 134°36'611.5
2018-Jun-15 20:00N 34°32' E 134°43'511.2
2018-Jun-15 19:30N 34°34' E 134°49'8 9.6
2018-Jun-15 18:38N 34°37' E 134°58'3 8.6
2018-Jun-15 18:19N 34°37' E 135°02'2 7.8
2018-Jun-15 18:00N 34°36' E 135°04'5 9.7
2018-Jun-15 17:30N 34°31' E 135°04'510.6
2018-Jun-15 17:00N 34°26' E 135°03'510.9
2018-Jun-15 16:30N 34°21' E 135°00'510.4
2018-Jun-15 16:00N 34°15' E 134°59'611.2
2018-Jun-15 15:30N 34°10' E 134°60'611.1
2018-Jun-15 15:00N 34°04' E 135°01'611.4
2018-Jun-15 14:30N 33°59' E 135°01'610.9
2018-Jun-15 13:58N 33°53' E 135°02'  
2018-Jun-10 17:05N 33°51' E 135°03'111.4
2018-Jun-10 16:58N 33°52' E 135°02'511.3
2018-Jun-10 16:30N 33°56' E 134°58'611.2
2018-Jun-10 15:59N 34°01' E 134°53'611.0
2018-Jun-10 15:27N 34°05' E 134°48'911.6
2018-Jun-10 14:42N 34°12' E 134°41'212.6
2018-Jun-10 14:30N 34°13' E 134°39'16 1.1
2018-Jun-10 00:21N 34°21' E 134°22'411.5
2018-Jun-10 00:00N 34°19' E 134°27'12 1.4
2018-Jun-09 15:10N 34°14' E 134°40'911.2
2018-Jun-09 14:24N 34°07' E 134°46'411.0
2018-Jun-09 14:00N 34°04' E 134°50'510.9
2018-Jun-09 13:30N 33°60' E 134°54'710.9
2018-Jun-09 12:52N 33°55' E 134°59'249 9.0
2018-Jun-08 09:17N 35°15' E 139°46'310.9
2018-Jun-08 09:00N 35°17' E 139°45'610.9
2018-Jun-08 08:30N 35°23' E 139°42'510.4
2018-Jun-08 08:00N 35°27' E 139°46'4 8.4
2018-Jun-08 07:30N 35°31' E 139°46'1 2.1
2018-Jun-08 06:59N 35°32' E 139°45'0 0.0
2018-Jun-08 06:30N 35°32' E 139°45'0 0.0
2018-Jun-08 05:58N 35°32' E 139°45'0 0.0
2018-Jun-08 05:30N 35°32' E 139°45'0 0.0
2018-Jun-08 05:00N 35°32' E 139°45'0 0.0
2018-Jun-08 04:31N 35°32' E 139°45'0 0.0
2018-Jun-08 04:00N 35°32' E 139°45'0 0.7
2018-Jun-08 03:30N 35°31' E 139°46'3 6.1
2018-Jun-08 03:01N 35°30' E 139°49'1 1.7
2018-Jun-08 02:30N 35°29' E 139°49'0 0.0
2018-Jun-08 02:00N 35°29' E 139°49'0 0.0
2018-Jun-08 01:30N 35°29' E 139°49'0 0.0
2018-Jun-08 01:00N 35°29' E 139°49'0 0.0
2018-Jun-08 00:30N 35°29' E 139°49'0 0.0
2018-Jun-07 23:57N 35°29' E 139°49'0 0.0
2018-Jun-07 23:27N 35°29' E 139°49'0 0.0
2018-Jun-07 22:57N 35°29' E 139°49'0 0.1
2018-Jun-07 22:30N 35°29' E 139°49'510.8
2018-Jun-07 22:00N 35°24' E 139°46'611.5
2018-Jun-07 21:30N 35°18' E 139°44'810.8
2018-Jun-07 20:45N 35°10' E 139°47'24710.5
2018-Jun-06 21:09N 33°50' E 135°03'311.4
2018-Jun-06 20:53N 33°53' E 135°01'411.2
2018-Jun-06 20:30N 33°57' E 135°00'611.3
2018-Jun-06 19:58N 34°03' E 134°59'511.3
2018-Jun-06 19:31N 34°08' E 134°58'611.1
2018-Jun-06 19:00N 34°14' E 134°59'510.1
2018-Jun-06 18:31N 34°19' E 134°59'510.7
2018-Jun-06 18:00N 34°24' E 135°00'510.6
2018-Jun-06 17:31N 34°29' E 135°02'510.6
2018-Jun-06 17:00N 34°34' E 135°03'9 7.1
2018-Jun-06 15:47N 34°34' E 134°53'3 9.4
2018-Jun-06 15:31N 34°33' E 134°50'610.8
2018-Jun-06 14:59N 34°31' E 134°43'511.0
2018-Jun-06 14:30N 34°29' E 134°38'611.5
2018-Jun-06 13:59N 34°27' E 134°31'  

Dump ship's entire track history